createdAt,value
2023-03-31T00:02:02.224Z,83.80
2023-03-31T00:04:33.824Z,84.28
2023-03-31T00:07:05.973Z,83.30
2023-03-31T00:09:37.434Z,83.50
2023-03-31T00:12:09.897Z,83.42
2023-03-31T00:14:41.891Z,82.71
2023-03-31T00:17:13.314Z,83.38
2023-03-31T00:19:44.716Z,82.26
2023-03-31T00:22:18.931Z,82.89
2023-03-31T00:24:50.292Z,82.05
2023-03-31T00:27:21.747Z,81.94
2023-03-31T00:29:53.136Z,82.43
2023-03-31T00:32:24.609Z,82.01
2023-03-31T00:34:56.068Z,82.94
2023-03-31T00:37:27.836Z,82.34
2023-03-31T00:39:59.765Z,82.28
2023-03-31T00:42:31.182Z,82.59
2023-03-31T00:45:14.608Z,81.98
2023-03-31T00:47:48.864Z,82.97
2023-03-31T00:50:27.035Z,82.47
2023-03-31T00:53:01.224Z,82.09
2023-03-31T00:55:36.303Z,79.96
2023-03-31T00:58:09.236Z,80.02
2023-03-31T01:00:41.462Z,79.54
2023-03-31T01:03:13.323Z,79.93
2023-03-31T01:05:47.869Z,81.45
2023-03-31T01:08:24.552Z,81.18
2023-03-31T01:10:58.091Z,82.40
2023-03-31T01:13:30.141Z,82.32
2023-03-31T01:16:02.184Z,82.31
2023-03-31T01:18:36.732Z,81.56
2023-03-31T01:21:10.889Z,82.37
2023-03-31T01:23:54.392Z,82.73
2023-03-31T01:26:38.745Z,82.56
2023-03-31T01:29:28.806Z,83.04
2023-03-31T01:32:03.516Z,82.83
2023-03-31T01:34:53.582Z,83.03
2023-03-31T01:37:30.692Z,83.32
2023-03-31T01:40:09.989Z,83.53
2023-03-31T01:42:47.206Z,83.48
2023-03-31T01:45:36.150Z,83.62
2023-03-31T01:48:13.091Z,83.10
2023-03-31T01:50:54.037Z,82.51
2023-03-31T01:53:31.358Z,81.50
2023-03-31T01:56:02.801Z,82.24
2023-03-31T01:58:39.455Z,81.60
2023-03-31T02:01:37.412Z,81.00
2023-03-31T02:04:18.463Z,80.97
2023-03-31T02:06:56.293Z,81.49
2023-03-31T02:09:31.298Z,81.42
2023-03-31T02:12:06.027Z,81.10
2023-03-31T02:14:39.602Z,80.83
2023-03-31T02:17:18.109Z,81.08
2023-03-31T02:19:51.796Z,80.08
2023-03-31T02:22:24.232Z,79.96
2023-03-31T02:24:56.392Z,79.15
2023-03-31T02:27:37.505Z,78.60
2023-03-31T02:30:09.897Z,78.53
2023-03-31T02:32:42.680Z,77.04
2023-03-31T02:35:19.019Z,77.26
2023-03-31T02:37:50.742Z,76.48
2023-03-31T02:40:22.802Z,75.87
2023-03-31T02:42:54.397Z,75.81
2023-03-31T02:45:34.878Z,76.84
2023-03-31T02:48:08.050Z,78.10
2023-03-31T02:51:07.462Z,78.95
2023-03-31T02:53:57.752Z,77.83
2023-03-31T02:56:48.161Z,78.84
2023-03-31T02:59:34.570Z,80.29
2023-03-31T03:02:24.758Z,82.45
2023-03-31T03:04:59.193Z,83.38
2023-03-31T03:07:54.892Z,82.91
2023-03-31T03:10:41.935Z,83.42
2023-03-31T03:13:19.637Z,81.76
2023-03-31T03:15:55.297Z,83.84
2023-03-31T03:18:26.734Z,82.70
2023-03-31T03:20:58.062Z,81.94
2023-03-31T03:23:29.483Z,82.24
2023-03-31T03:26:01.131Z,82.20
2023-03-31T03:28:32.456Z,81.93
2023-03-31T03:31:03.854Z,82.94
2023-03-31T03:33:35.493Z,83.17
2023-03-31T03:36:07.337Z,84.62
2023-03-31T03:38:38.834Z,84.63
2023-03-31T03:41:10.364Z,86.10
2023-03-31T03:43:41.784Z,87.98
2023-03-31T03:46:13.260Z,89.17
2023-03-31T03:48:44.684Z,90.48
2023-03-31T03:51:16.225Z,90.69
2023-03-31T03:53:47.790Z,91.35
2023-03-31T03:56:19.174Z,91.20
2023-03-31T03:58:50.905Z,92.06
2023-03-31T04:01:22.642Z,93.33
2023-03-31T04:03:54.073Z,92.83
2023-03-31T04:06:25.385Z,93.23
2023-03-31T04:08:56.829Z,92.84
2023-03-31T04:11:28.266Z,93.41
2023-03-31T04:13:59.644Z,92.93
2023-03-31T04:16:32.412Z,93.34
2023-03-31T04:19:04.907Z,94.32
2023-03-31T04:21:36.296Z,94.74
2023-03-31T04:24:07.746Z,94.78
2023-03-31T04:26:42.786Z,95.33
2023-03-31T04:29:16.435Z,94.80
2023-03-31T04:31:48.008Z,95.04
2023-03-31T04:34:22.159Z,95.24
2023-03-31T04:36:56.184Z,94.83
2023-03-31T04:39:30.693Z,95.38
2023-03-31T04:42:02.273Z,94.63
2023-03-31T04:44:33.704Z,95.21
2023-03-31T04:47:06.915Z,94.32
2023-03-31T04:49:38.294Z,93.81
2023-03-31T04:52:09.613Z,94.32
2023-03-31T04:54:43.398Z,94.91
2023-03-31T04:57:14.775Z,95.13
2023-03-31T04:59:46.706Z,95.45
2023-03-31T05:02:25.052Z,96.12
2023-03-31T05:04:56.937Z,96.12
2023-03-31T05:07:28.308Z,96.29
2023-03-31T05:09:59.705Z,96.18
2023-03-31T05:12:34.246Z,96.83
2023-03-31T05:15:06.098Z,96.70
2023-03-31T05:17:38.094Z,97.00
2023-03-31T05:20:09.926Z,97.34
2023-03-31T05:22:43.673Z,97.46
2023-03-31T05:25:18.640Z,97.77
2023-03-31T05:27:51.053Z,97.98
2023-03-31T05:30:22.676Z,97.52
2023-03-31T05:32:54.096Z,97.73
2023-03-31T05:35:25.954Z,98.37
2023-03-31T05:37:57.348Z,98.26
2023-03-31T05:40:28.725Z,98.40
2023-03-31T05:43:00.032Z,98.12
2023-03-31T05:45:31.396Z,97.69
2023-03-31T05:48:03.504Z,98.08
2023-03-31T05:50:34.895Z,98.27
2023-03-31T05:53:06.239Z,97.51
2023-03-31T05:55:37.649Z,97.46
2023-03-31T05:58:09.108Z,97.20
2023-03-31T06:00:40.472Z,96.71
2023-03-31T06:03:11.972Z,96.86
2023-03-31T06:05:47.516Z,96.33
2023-03-31T06:08:18.836Z,95.74
2023-03-31T06:10:50.900Z,95.86
2023-03-31T06:13:22.276Z,96.00
2023-03-31T06:15:54.914Z,95.97
2023-03-31T06:18:29.972Z,95.60
2023-03-31T06:21:01.430Z,95.78
2023-03-31T06:23:33.230Z,95.55
2023-03-31T06:26:07.106Z,95.82
2023-03-31T06:28:38.649Z,95.32
2023-03-31T06:31:12.652Z,95.13
2023-03-31T06:33:44.468Z,94.73
2023-03-31T06:36:17.074Z,94.65
2023-03-31T06:38:49.220Z,94.89
2023-03-31T06:41:22.495Z,95.02
2023-03-31T06:43:53.961Z,93.76
2023-03-31T06:46:25.394Z,94.37
2023-03-31T06:48:56.765Z,94.00
2023-03-31T06:51:29.324Z,94.58
2023-03-31T06:54:01.936Z,93.51
2023-03-31T06:56:33.311Z,93.45
2023-03-31T06:59:04.660Z,93.73
2023-03-31T07:01:37.554Z,93.32
2023-03-31T07:04:09.186Z,93.87
2023-03-31T07:06:40.583Z,94.33
2023-03-31T07:09:11.923Z,97.10
2023-03-31T07:11:43.290Z,97.78
2023-03-31T07:14:14.717Z,98.32
2023-03-31T07:16:46.189Z,98.78
2023-03-31T07:19:17.772Z,99.25
2023-03-31T07:21:49.157Z,100.00
2023-03-31T07:24:20.665Z,100.00
2023-03-31T07:26:52.138Z,99.89
2023-03-31T07:29:23.741Z,99.23
2023-03-31T07:31:55.127Z,100.00
2023-03-31T07:34:27.208Z,99.73
2023-03-31T07:36:58.567Z,99.57
2023-03-31T07:39:30.380Z,99.51
2023-03-31T07:42:02.017Z,99.23
2023-03-31T07:44:34.352Z,99.20
2023-03-31T07:47:06.217Z,99.46
2023-03-31T07:49:38.061Z,98.88
2023-03-31T07:52:09.396Z,98.95
2023-03-31T07:54:40.778Z,98.57
2023-03-31T07:57:12.792Z,99.02
2023-03-31T07:59:44.226Z,98.07
2023-03-31T08:02:16.847Z,98.89
2023-03-31T08:04:48.242Z,98.76
2023-03-31T08:07:22.006Z,97.65
2023-03-31T08:09:53.389Z,97.05
2023-03-31T08:12:24.964Z,96.71
2023-03-31T08:14:56.475Z,95.33
2023-03-31T08:17:28.189Z,95.13
2023-03-31T08:20:03.702Z,95.78
2023-03-31T08:22:39.558Z,95.12
2023-03-31T08:25:11.406Z,94.95
2023-03-31T08:27:42.754Z,93.46
2023-03-31T08:30:14.428Z,92.78
2023-03-31T08:32:46.434Z,94.68
2023-03-31T08:35:17.888Z,94.29
2023-03-31T08:37:49.317Z,92.92
2023-03-31T08:40:22.909Z,91.79
2023-03-31T08:43:00.764Z,89.03
2023-03-31T08:45:34.436Z,89.14
2023-03-31T08:48:15.380Z,89.53
2023-03-31T08:50:49.580Z,89.23
2023-03-31T08:53:27.342Z,85.59
2023-03-31T08:55:59.243Z,82.62
2023-03-31T08:58:37.049Z,83.98
2023-03-31T09:01:27.659Z,82.48
2023-03-31T09:04:06.499Z,82.45
2023-03-31T09:06:59.364Z,81.87
2023-03-31T09:09:49.425Z,80.38
2023-03-31T09:12:23.441Z,81.67
2023-03-31T09:14:59.755Z,82.14
2023-03-31T09:17:33.605Z,81.76
2023-03-31T09:20:09.284Z,79.21
2023-03-31T09:22:44.086Z,79.59
2023-03-31T09:25:42.392Z,78.61
2023-03-31T09:28:29.415Z,78.77
2023-03-31T09:31:03.327Z,74.79
2023-03-31T09:33:39.929Z,73.26
2023-03-31T09:36:15.121Z,72.69
2023-03-31T09:38:47.216Z,74.19
2023-03-31T09:41:19.116Z,71.44
2023-03-31T09:43:51.396Z,70.93
2023-03-31T09:46:34.737Z,71.40
2023-03-31T09:49:10.772Z,72.51
2023-03-31T09:51:46.125Z,69.95
2023-03-31T09:54:24.202Z,69.96
2023-03-31T09:56:55.876Z,70.18
2023-03-31T09:59:31.473Z,69.12
2023-03-31T10:02:21.503Z,67.57
2023-03-31T10:04:52.843Z,68.49
2023-03-31T10:07:25.096Z,68.57
2023-03-31T10:09:57.340Z,66.66
2023-03-31T10:12:30.436Z,66.37
2023-03-31T10:15:22.045Z,65.94
2023-03-31T10:17:55.494Z,65.11
2023-03-31T10:20:47.384Z,65.64
2023-03-31T10:23:25.496Z,64.58
2023-03-31T10:25:58.122Z,66.56
2023-03-31T10:28:32.243Z,64.82
2023-03-31T10:31:05.095Z,65.41
2023-03-31T10:33:41.804Z,64.37
2023-03-31T10:36:29.184Z,63.79
2023-03-31T10:39:05.537Z,64.42
2023-03-31T10:41:38.750Z,63.79
2023-03-31T10:44:30.300Z,62.45
2023-03-31T10:47:22.134Z,62.42
2023-03-31T10:49:57.966Z,61.44
2023-03-31T10:52:44.444Z,61.26
2023-03-31T10:55:24.140Z,61.79
2023-03-31T10:57:55.631Z,61.37
2023-03-31T11:00:39.554Z,61.90
2023-03-31T11:03:22.508Z,62.28
2023-03-31T11:06:13.066Z,63.06
2023-03-31T11:08:54.035Z,64.88
2023-03-31T11:11:32.041Z,64.54
2023-03-31T11:14:07.462Z,65.31
2023-03-31T11:16:45.823Z,68.21
2023-03-31T11:19:17.364Z,72.36
2023-03-31T11:22:00.997Z,74.78
2023-03-31T11:24:35.477Z,78.02
2023-03-31T11:27:21.317Z,78.09
2023-03-31T11:29:55.454Z,81.54
2023-03-31T11:32:27.318Z,80.91
2023-03-31T11:35:10.108Z,77.84
2023-03-31T11:37:56.744Z,76.31
2023-03-31T11:40:37.919Z,75.41
2023-03-31T11:43:21.614Z,75.10
2023-03-31T11:45:56.192Z,72.73
2023-03-31T11:48:38.384Z,71.59
2023-03-31T11:51:14.074Z,71.18
2023-03-31T11:53:47.003Z,70.22
2023-03-31T11:56:18.729Z,64.46
2023-03-31T11:58:56.303Z,64.48
2023-03-31T12:01:27.707Z,62.98
2023-03-31T12:04:09.873Z,62.90
2023-03-31T12:06:42.897Z,62.47
2023-03-31T12:09:23.993Z,61.77
2023-03-31T12:12:04.196Z,61.57
2023-03-31T12:14:35.610Z,60.48
2023-03-31T12:17:12.281Z,59.87
2023-03-31T12:19:51.666Z,59.81
2023-03-31T12:22:26.257Z,60.57
2023-03-31T12:24:58.255Z,60.92
2023-03-31T12:27:32.769Z,60.63
2023-03-31T12:30:07.381Z,61.43
2023-03-31T12:32:48.765Z,60.61
2023-03-31T12:35:29.215Z,60.07
2023-03-31T12:38:05.806Z,60.26
2023-03-31T12:40:40.043Z,61.18
2023-03-31T12:43:25.003Z,59.93
2023-03-31T12:46:04.341Z,62.06
2023-03-31T12:48:46.709Z,58.67
2023-03-31T12:51:36.209Z,59.49
2023-03-31T12:54:22.824Z,60.50
2023-03-31T12:57:00.888Z,60.32
2023-03-31T12:59:39.658Z,59.67
2023-03-31T13:02:14.839Z,57.74
2023-03-31T13:04:46.233Z,56.23
2023-03-31T13:07:28.246Z,53.76
2023-03-31T13:10:12.736Z,51.86
2023-03-31T13:13:04.489Z,50.48
2023-03-31T13:15:36.358Z,52.65
2023-03-31T13:18:07.983Z,56.20
2023-03-31T13:20:40.846Z,58.61
2023-03-31T13:23:12.177Z,56.00
2023-03-31T13:25:45.394Z,55.46
2023-03-31T13:28:22.829Z,54.06
2023-03-31T13:30:58.638Z,52.00
2023-03-31T13:33:49.005Z,52.46
2023-03-31T13:36:32.796Z,50.94
2023-03-31T13:39:39.770Z,51.34
2023-03-31T13:42:29.506Z,49.75
2023-03-31T13:45:02.126Z,47.67
2023-03-31T13:47:36.551Z,47.57
2023-03-31T13:50:26.922Z,47.01
2023-03-31T13:52:58.240Z,47.15
2023-03-31T13:55:29.798Z,47.70
2023-03-31T13:58:32.846Z,46.06
2023-03-31T14:01:21.493Z,44.17
2023-03-31T14:03:53.540Z,45.64
2023-03-31T14:06:37.389Z,46.66
2023-03-31T14:09:31.295Z,47.16
2023-03-31T14:12:18.960Z,49.74
2023-03-31T14:14:53.096Z,51.93
2023-03-31T14:17:27.781Z,52.90
2023-03-31T14:20:17.767Z,54.51
2023-03-31T14:23:07.682Z,55.01
2023-03-31T14:25:51.494Z,55.23
2023-03-31T14:28:25.995Z,56.03
2023-03-31T14:31:02.897Z,56.03
2023-03-31T14:33:34.362Z,56.93
2023-03-31T14:36:16.520Z,60.01
2023-03-31T14:38:48.561Z,68.07
2023-03-31T14:41:30.429Z,63.60
2023-03-31T14:44:02.573Z,65.03
2023-03-31T14:46:37.960Z,67.12
2023-03-31T14:49:18.428Z,70.50
2023-03-31T14:51:53.023Z,82.05
2023-03-31T14:54:24.390Z,76.31
2023-03-31T14:56:58.898Z,76.83
2023-03-31T14:59:32.790Z,76.08
2023-03-31T15:02:05.533Z,76.29
2023-03-31T15:04:44.776Z,67.95
2023-03-31T15:07:17.342Z,58.53
2023-03-31T15:09:50.551Z,51.99
2023-03-31T15:12:23.434Z,47.25
2023-03-31T15:14:58.060Z,44.50
2023-03-31T15:17:32.433Z,41.28
2023-03-31T15:20:21.769Z,37.63
2023-03-31T15:22:53.799Z,36.36
2023-03-31T15:25:29.306Z,34.07
2023-03-31T15:28:03.807Z,35.19
2023-03-31T15:30:37.475Z,37.94
2023-03-31T15:33:19.553Z,37.54
2023-03-31T15:35:51.448Z,42.51
2023-03-31T15:38:25.225Z,45.00
2023-03-31T15:40:57.215Z,47.12
2023-03-31T15:43:30.943Z,49.44
2023-03-31T15:46:02.570Z,51.86
2023-03-31T15:48:34.205Z,52.73
2023-03-31T15:51:07.953Z,52.41
2023-03-31T15:53:50.901Z,54.04
2023-03-31T15:56:34.787Z,54.06
2023-03-31T15:59:34.197Z,53.46
2023-03-31T16:02:13.567Z,53.11
2023-03-31T16:04:47.705Z,52.59
2023-03-31T16:07:23.930Z,51.91
2023-03-31T16:09:57.803Z,51.13
2023-03-31T16:12:36.171Z,51.40
2023-03-31T16:15:10.489Z,51.09
2023-03-31T16:17:54.348Z,50.78
2023-03-31T16:20:28.605Z,52.10
2023-03-31T16:23:00.311Z,52.24
2023-03-31T16:25:32.149Z,53.03
2023-03-31T16:28:05.134Z,54.25
2023-03-31T16:30:41.608Z,55.26
2023-03-31T16:33:20.692Z,55.95
2023-03-31T16:35:56.437Z,55.61
2023-03-31T16:38:29.575Z,56.34
2023-03-31T16:41:01.257Z,56.42
2023-03-31T16:43:33.797Z,56.84
2023-03-31T16:46:05.402Z,57.49
2023-03-31T16:48:36.903Z,57.84
2023-03-31T16:51:08.408Z,65.19
2023-03-31T16:53:40.292Z,70.11
2023-03-31T16:56:12.010Z,75.50
2023-03-31T16:58:43.759Z,80.16
2023-03-31T17:01:15.780Z,86.23
2023-03-31T17:03:47.643Z,88.46
2023-03-31T17:06:19.200Z,89.42
2023-03-31T17:08:50.644Z,88.57
2023-03-31T17:11:22.817Z,88.71
2023-03-31T17:13:55.705Z,88.76
2023-03-31T17:16:36.302Z,90.61
2023-03-31T17:19:17.276Z,88.84
2023-03-31T17:21:49.435Z,90.08
2023-03-31T17:24:22.264Z,87.17
2023-03-31T17:26:53.578Z,87.72
2023-03-31T17:29:26.013Z,87.27
2023-03-31T17:31:57.720Z,86.64
2023-03-31T17:34:31.593Z,87.34
2023-03-31T17:37:03.051Z,87.04
2023-03-31T17:39:34.606Z,86.11
2023-03-31T17:42:05.984Z,85.06
2023-03-31T17:44:38.030Z,85.72
2023-03-31T17:47:09.719Z,84.58
2023-03-31T17:49:42.428Z,84.90
2023-03-31T17:52:14.211Z,83.61
2023-03-31T17:54:46.068Z,82.96
2023-03-31T17:57:18.872Z,82.00
2023-03-31T17:59:50.898Z,82.50
2023-03-31T18:02:22.704Z,82.22
2023-03-31T18:04:54.730Z,81.53
2023-03-31T18:07:26.186Z,81.08
2023-03-31T18:09:57.637Z,80.35
2023-03-31T18:12:29.653Z,80.46
2023-03-31T18:15:02.889Z,79.74
2023-03-31T18:17:36.874Z,79.22
2023-03-31T18:20:08.505Z,78.72
2023-03-31T18:22:39.852Z,78.37
2023-03-31T18:25:12.187Z,77.65
2023-03-31T18:27:43.533Z,78.12
2023-03-31T18:30:15.488Z,78.50
2023-03-31T18:32:46.922Z,77.46
2023-03-31T18:35:19.917Z,78.24
2023-03-31T18:37:51.615Z,77.74
2023-03-31T18:40:23.660Z,77.95
2023-03-31T18:42:55.118Z,77.18
2023-03-31T18:45:28.192Z,78.08
2023-03-31T18:47:59.842Z,76.77
2023-03-31T18:50:31.275Z,76.25
2023-03-31T18:53:03.489Z,75.13
2023-03-31T18:55:37.244Z,76.46
2023-03-31T18:58:08.910Z,74.79
2023-03-31T19:00:42.054Z,75.43
2023-03-31T19:03:13.749Z,74.73
2023-03-31T19:05:45.237Z,75.27
2023-03-31T19:08:16.760Z,74.50
2023-03-31T19:10:48.931Z,74.66
2023-03-31T19:13:20.306Z,74.57
2023-03-31T19:15:51.984Z,74.58
2023-03-31T19:18:23.336Z,74.59
2023-03-31T19:20:56.982Z,74.51
2023-03-31T19:23:29.236Z,73.84
2023-03-31T19:26:03.292Z,74.48
2023-03-31T19:28:34.918Z,73.98
2023-03-31T19:31:06.735Z,74.37
2023-03-31T19:33:38.077Z,73.55
2023-03-31T19:36:09.767Z,72.95
2023-03-31T19:38:41.463Z,71.92
2023-03-31T19:41:13.057Z,71.30
2023-03-31T19:43:44.884Z,71.67
2023-03-31T19:46:16.338Z,70.90
2023-03-31T19:48:47.867Z,70.68
2023-03-31T19:51:19.354Z,70.75
2023-03-31T19:53:50.737Z,71.05
2023-03-31T19:56:25.218Z,69.99
2023-03-31T19:58:57.406Z,70.34
2023-03-31T20:01:28.930Z,70.18
2023-03-31T20:04:01.183Z,69.71
2023-03-31T20:06:35.505Z,68.98
2023-03-31T20:09:09.630Z,69.44
2023-03-31T20:11:43.254Z,68.88
2023-03-31T20:14:16.436Z,69.12
2023-03-31T20:16:49.695Z,69.05
2023-03-31T20:19:23.152Z,68.98
2023-03-31T20:21:55.819Z,69.00
2023-03-31T20:24:27.842Z,69.28
2023-03-31T20:26:59.190Z,68.77
2023-03-31T20:29:30.546Z,68.57
2023-03-31T20:32:02.647Z,68.10
2023-03-31T20:34:34.161Z,68.07
2023-03-31T20:37:05.507Z,67.88
2023-03-31T20:39:37.578Z,67.25
2023-03-31T20:42:08.955Z,67.57
2023-03-31T20:44:41.157Z,67.25
2023-03-31T20:47:14.396Z,66.50
2023-03-31T20:49:46.574Z,67.03
2023-03-31T20:52:17.931Z,66.62
2023-03-31T20:54:49.320Z,66.55
2023-03-31T20:57:21.049Z,66.04
2023-03-31T20:59:52.497Z,66.35
2023-03-31T21:02:24.016Z,66.65
2023-03-31T21:04:55.457Z,65.82
2023-03-31T21:07:26.867Z,65.47
2023-03-31T21:09:59.736Z,65.94
2023-03-31T21:12:31.162Z,65.32
2023-03-31T21:15:02.547Z,65.52
2023-03-31T21:17:34.215Z,65.79
2023-03-31T21:20:05.974Z,65.20
2023-03-31T21:22:37.440Z,65.20
2023-03-31T21:25:09.023Z,65.11
2023-03-31T21:27:40.393Z,65.37
2023-03-31T21:30:12.152Z,65.52
2023-03-31T21:32:43.738Z,65.26
2023-03-31T21:35:15.335Z,65.37
2023-03-31T21:37:46.742Z,65.51
2023-03-31T21:40:18.242Z,65.74
2023-03-31T21:42:49.661Z,65.61
2023-03-31T21:45:21.855Z,65.12
2023-03-31T21:47:53.663Z,65.87
2023-03-31T21:50:25.593Z,65.73
2023-03-31T21:52:57.379Z,65.96
2023-03-31T21:55:29.586Z,65.75
2023-03-31T21:58:01.629Z,66.07
2023-03-31T22:00:33.006Z,66.05
2023-03-31T22:03:22.380Z,66.35
2023-03-31T22:05:59.403Z,65.99
2023-03-31T22:08:31.715Z,66.33
2023-03-31T22:11:04.091Z,66.58
2023-03-31T22:13:36.092Z,66.29
2023-03-31T22:16:18.166Z,66.27
2023-03-31T22:18:50.699Z,66.32
2023-03-31T22:21:26.047Z,66.49
2023-03-31T22:23:59.588Z,66.96
2023-03-31T22:26:31.493Z,66.54
2023-03-31T22:29:03.240Z,67.21
2023-03-31T22:31:34.694Z,66.57
2023-03-31T22:34:06.508Z,66.98
2023-03-31T22:36:37.912Z,66.60
2023-03-31T22:39:10.566Z,66.43
2023-03-31T22:41:42.945Z,67.00
2023-03-31T22:44:14.810Z,67.43
2023-03-31T22:46:49.324Z,67.98
2023-03-31T22:49:20.984Z,68.33
2023-03-31T22:51:56.077Z,69.09
2023-03-31T22:54:27.680Z,69.80
2023-03-31T22:56:59.063Z,70.09
2023-03-31T22:59:31.192Z,70.51
2023-03-31T23:02:03.276Z,70.41
2023-03-31T23:04:34.802Z,70.98
2023-03-31T23:07:06.444Z,72.01
2023-03-31T23:09:37.839Z,72.41
2023-03-31T23:12:09.155Z,72.42
2023-03-31T23:14:40.821Z,72.67
2023-03-31T23:17:12.263Z,72.86
2023-03-31T23:19:45.637Z,72.35
2023-03-31T23:22:17.041Z,72.67
2023-03-31T23:24:48.786Z,73.22
2023-03-31T23:27:20.309Z,73.23
2023-03-31T23:29:51.718Z,73.23
2023-03-31T23:32:23.070Z,73.49
2023-03-31T23:34:54.563Z,73.71
2023-03-31T23:37:26.374Z,74.45
2023-03-31T23:39:57.962Z,74.12
2023-03-31T23:42:29.472Z,74.92
2023-03-31T23:45:01.175Z,75.95
2023-03-31T23:47:32.689Z,75.65
2023-03-31T23:50:06.127Z,76.00
2023-03-31T23:52:37.586Z,76.05
2023-03-31T23:55:09.324Z,77.18
2023-03-31T23:57:41.346Z,77.39
